createdAt,value
2022-12-29T00:02:31.993Z,87.43
2022-12-29T00:07:33.781Z,87.67
2022-12-29T00:12:53.913Z,87.71
2022-12-29T00:17:55.529Z,88.18
2022-12-29T00:23:15.609Z,87.17
2022-12-29T00:28:35.837Z,87.33
2022-12-29T00:33:56.254Z,86.63
2022-12-29T00:39:20.762Z,87.21
2022-12-29T00:44:22.438Z,87.32
2022-12-29T00:49:33.160Z,87.34
2022-12-29T00:54:37.356Z,87.52
2022-12-29T00:59:40.696Z,87.94
2022-12-29T01:04:42.337Z,87.16
2022-12-29T01:10:02.539Z,86.43
2022-12-29T01:15:04.519Z,86.61
2022-12-29T01:20:07.154Z,86.38
2022-12-29T01:25:09.030Z,86.31
2022-12-29T01:30:11.036Z,86.08
2022-12-29T01:35:12.666Z,86.12
2022-12-29T01:40:14.387Z,85.99
2022-12-29T01:45:18.308Z,86.19
2022-12-29T01:50:29.431Z,85.71
2022-12-29T01:55:37.188Z,86.00
2022-12-29T02:00:38.963Z,86.67
2022-12-29T02:05:54.711Z,87.04
2022-12-29T02:11:01.864Z,86.54
2022-12-29T02:16:33.624Z,86.66
2022-12-29T02:21:38.925Z,86.28
2022-12-29T02:26:52.710Z,86.69
2022-12-29T02:32:02.318Z,86.60
2022-12-29T02:37:24.238Z,86.19
2022-12-29T02:42:44.808Z,85.75
2022-12-29T02:48:02.574Z,85.83
2022-12-29T02:53:13.906Z,85.36
2022-12-29T02:58:23.055Z,85.51
2022-12-29T03:03:33.561Z,85.73
2022-12-29T03:08:57.687Z,86.49
2022-12-29T03:14:33.146Z,85.68
2022-12-29T03:19:48.806Z,85.36
2022-12-29T03:24:53.704Z,85.80
2022-12-29T03:30:02.491Z,86.21
2022-12-29T03:35:06.641Z,85.11
2022-12-29T03:40:10.244Z,85.09
2022-12-29T03:45:12.298Z,85.49
2022-12-29T03:50:14.597Z,85.35
2022-12-29T03:55:16.428Z,84.96
2022-12-29T04:00:18.385Z,85.17
2022-12-29T04:05:20.293Z,85.11
2022-12-29T04:10:21.933Z,85.22
2022-12-29T04:15:25.281Z,85.15
2022-12-29T04:20:45.476Z,85.15
2022-12-29T04:25:50.464Z,85.00
2022-12-29T04:30:52.572Z,84.86
2022-12-29T04:35:55.476Z,85.13
2022-12-29T04:41:01.075Z,85.39
2022-12-29T04:46:02.768Z,85.75
2022-12-29T04:51:04.607Z,84.69
2022-12-29T04:56:06.549Z,84.70
2022-12-29T05:01:08.203Z,85.00
2022-12-29T05:06:09.908Z,84.61
2022-12-29T05:11:11.577Z,84.93
2022-12-29T05:16:13.388Z,84.83
2022-12-29T05:21:15.175Z,84.60
2022-12-29T05:26:16.871Z,85.57
2022-12-29T05:31:18.593Z,84.46
2022-12-29T05:36:20.849Z,84.46
2022-12-29T05:41:22.787Z,84.42
2022-12-29T05:46:24.512Z,84.06
2022-12-29T05:51:26.313Z,84.83
2022-12-29T05:56:27.952Z,84.50
2022-12-29T06:01:29.593Z,84.67
2022-12-29T06:06:31.419Z,84.64
2022-12-29T06:11:33.284Z,85.02
2022-12-29T06:16:35.156Z,84.82
2022-12-29T06:21:36.931Z,84.56
2022-12-29T06:26:38.710Z,85.24
2022-12-29T06:31:40.453Z,84.38
2022-12-29T06:36:42.232Z,84.65
2022-12-29T06:41:43.919Z,84.51
2022-12-29T06:46:45.542Z,84.37
2022-12-29T06:51:47.624Z,84.12
2022-12-29T06:56:49.295Z,84.44
2022-12-29T07:01:53.038Z,83.76
2022-12-29T07:06:56.256Z,84.00
2022-12-29T07:11:58.355Z,83.72
2022-12-29T07:17:00.017Z,84.06
2022-12-29T07:22:02.334Z,84.28
2022-12-29T07:27:04.342Z,84.60
2022-12-29T07:38:31.549Z,84.86
2022-12-29T07:43:33.370Z,84.88
2022-12-29T07:48:37.088Z,84.91
2022-12-29T07:53:38.780Z,86.08
2022-12-29T07:58:40.360Z,85.43
2022-12-29T08:03:42.664Z,85.48
2022-12-29T08:08:45.631Z,86.03
2022-12-29T08:13:47.292Z,86.81
2022-12-29T08:18:49.025Z,87.85
2022-12-29T08:23:50.751Z,87.71
2022-12-29T08:28:56.825Z,87.20
2022-12-29T08:33:58.549Z,88.25
2022-12-29T08:39:00.288Z,88.30
2022-12-29T08:44:02.007Z,88.21
2022-12-29T08:49:03.762Z,89.64
2022-12-29T08:54:05.506Z,89.47
2022-12-29T08:59:07.097Z,90.13
2022-12-29T09:04:17.618Z,90.82
2022-12-29T09:09:20.599Z,91.33
2022-12-29T09:14:22.642Z,91.43
2022-12-29T09:19:24.324Z,91.79
2022-12-29T09:24:27.098Z,92.26
2022-12-29T09:29:28.837Z,92.48
2022-12-29T09:34:30.552Z,92.70
2022-12-29T09:39:32.318Z,93.63
2022-12-29T09:45:06.449Z,93.72
2022-12-29T09:50:15.756Z,92.76
2022-12-29T09:55:23.089Z,93.20
2022-12-29T10:00:39.824Z,93.87
2022-12-29T10:05:44.540Z,93.91
2022-12-29T10:11:12.586Z,93.22
2022-12-29T10:16:40.077Z,92.15
2022-12-29T10:22:07.996Z,92.73
2022-12-29T10:27:14.319Z,92.99
2022-12-29T10:32:22.749Z,92.46
2022-12-29T10:37:44.231Z,92.14
2022-12-29T10:42:52.016Z,92.82
2022-12-29T10:48:04.321Z,92.57
2022-12-29T10:53:09.466Z,92.68
2022-12-29T10:58:15.769Z,92.66
2022-12-29T11:03:41.169Z,91.94
2022-12-29T11:08:53.968Z,90.82
2022-12-29T11:14:03.669Z,90.40
2022-12-29T11:19:05.913Z,88.41
2022-12-29T11:24:22.013Z,90.33
2022-12-29T11:29:27.842Z,90.16
2022-12-29T11:34:35.261Z,88.86
2022-12-29T11:39:55.482Z,88.96
2022-12-29T11:44:57.303Z,90.23
2022-12-29T11:50:02.679Z,89.87
2022-12-29T11:55:08.515Z,87.62
2022-12-29T12:00:17.457Z,86.34
2022-12-29T12:05:22.469Z,85.13
2022-12-29T12:10:39.702Z,88.02
2022-12-29T12:15:48.274Z,86.34
2022-12-29T12:20:59.824Z,87.23
2022-12-29T12:26:12.964Z,88.47
2022-12-29T12:31:39.907Z,88.23
2022-12-29T12:36:44.226Z,88.34
2022-12-29T12:42:41.525Z,88.03
2022-12-29T12:47:52.917Z,85.54
2022-12-29T12:53:25.141Z,86.60
2022-12-29T12:58:51.118Z,87.34
2022-12-29T13:04:01.999Z,86.66
2022-12-29T13:09:48.958Z,86.75
2022-12-29T13:14:58.990Z,86.56
2022-12-29T13:20:18.976Z,88.18
2022-12-29T13:25:59.431Z,88.69
2022-12-29T13:31:12.178Z,85.81
2022-12-29T13:36:13.845Z,88.77
2022-12-29T13:41:22.765Z,81.53
2022-12-29T13:46:41.854Z,81.18
2022-12-29T13:51:53.095Z,74.71
2022-12-29T13:57:08.338Z,73.38
2022-12-29T14:02:18.968Z,73.14
2022-12-29T14:07:20.829Z,71.96
2022-12-29T14:12:31.563Z,71.96
2022-12-29T14:17:33.534Z,75.91
2022-12-29T14:22:35.463Z,70.97
2022-12-29T14:27:54.600Z,74.00
2022-12-29T14:33:14.164Z,74.87
2022-12-29T14:38:24.991Z,73.93
2022-12-29T14:43:28.268Z,77.61
2022-12-29T14:48:44.044Z,76.11
2022-12-29T14:53:52.201Z,75.88
2022-12-29T14:59:00.165Z,74.76
2022-12-29T15:04:15.639Z,75.61
2022-12-29T15:09:28.835Z,74.44
2022-12-29T15:14:50.139Z,76.92
2022-12-29T15:19:51.964Z,76.53
2022-12-29T15:24:55.340Z,75.48
2022-12-29T15:30:03.211Z,76.71
2022-12-29T15:35:36.880Z,78.40
2022-12-29T15:40:38.735Z,80.12
2022-12-29T15:45:40.567Z,82.00
2022-12-29T15:50:44.279Z,83.17
2022-12-29T15:55:48.679Z,85.14
2022-12-29T16:01:02.268Z,86.04
2022-12-29T16:06:11.779Z,86.96
2022-12-29T16:11:24.858Z,87.22
2022-12-29T16:16:36.421Z,87.74
2022-12-29T16:21:38.340Z,88.06
2022-12-29T16:26:40.775Z,88.29
2022-12-29T16:32:01.559Z,88.68
2022-12-29T16:37:05.800Z,89.14
2022-12-29T16:42:37.451Z,88.00
2022-12-29T16:47:39.334Z,88.93
2022-12-29T16:52:40.977Z,89.26
2022-12-29T16:57:44.882Z,88.65
2022-12-29T17:02:47.951Z,89.55
2022-12-29T17:07:50.111Z,89.20
2022-12-29T17:12:51.758Z,89.18
2022-12-29T17:17:56.967Z,89.10
2022-12-29T17:23:00.362Z,89.95
2022-12-29T17:28:28.129Z,89.94
2022-12-29T17:33:36.425Z,89.36
2022-12-29T17:38:38.411Z,90.39
2022-12-29T17:43:40.742Z,91.22
2022-12-29T17:48:43.856Z,91.73
2022-12-29T17:53:47.439Z,92.18
2022-12-29T17:58:49.354Z,92.19
2022-12-29T18:03:51.168Z,91.50
2022-12-29T18:08:52.981Z,92.29
2022-12-29T18:13:54.714Z,91.09
2022-12-29T18:18:56.435Z,91.19
2022-12-29T18:23:58.155Z,91.29
2022-12-29T18:28:59.945Z,91.54
2022-12-29T18:34:07.654Z,91.33
2022-12-29T18:39:09.445Z,91.22
2022-12-29T18:44:14.293Z,91.72
2022-12-29T18:49:16.356Z,91.96
2022-12-29T18:54:31.883Z,91.73
2022-12-29T18:59:33.803Z,91.90
2022-12-29T19:04:35.603Z,91.84
2022-12-29T19:09:37.291Z,91.57
2022-12-29T19:14:39.332Z,91.73
2022-12-29T19:19:43.205Z,91.24
2022-12-29T19:24:44.991Z,91.40
2022-12-29T19:29:47.020Z,92.81
2022-12-29T19:34:49.138Z,91.83
2022-12-29T19:39:51.007Z,92.50
2022-12-29T19:44:52.633Z,92.38
2022-12-29T19:49:54.777Z,92.01
2022-12-29T19:54:56.651Z,92.42
2022-12-29T19:59:58.737Z,91.83
2022-12-29T20:05:01.255Z,91.96
2022-12-29T20:10:04.999Z,91.88
2022-12-29T20:15:09.021Z,92.62
2022-12-29T20:20:10.985Z,91.96
2022-12-29T20:25:43.597Z,92.98
2022-12-29T20:30:34.602Z,92.63
2022-12-29T20:35:37.324Z,93.09
2022-12-29T20:40:44.398Z,93.75
2022-12-29T20:45:49.193Z,93.95
2022-12-29T20:50:50.974Z,94.39
2022-12-29T20:56:00.320Z,94.11
2022-12-29T21:01:05.451Z,94.37
2022-12-29T21:06:07.854Z,94.13
2022-12-29T21:11:10.191Z,94.69
2022-12-29T21:16:13.578Z,94.35
2022-12-29T21:21:21.059Z,94.23
2022-12-29T21:26:24.658Z,93.83
2022-12-29T21:31:27.775Z,93.96
2022-12-29T21:36:30.255Z,94.06
2022-12-29T21:41:32.555Z,94.22
2022-12-29T21:46:36.860Z,93.59
2022-12-29T21:51:50.438Z,93.83
2022-12-29T21:56:52.070Z,94.06
2022-12-29T22:02:12.073Z,93.13
2022-12-29T22:07:32.620Z,93.25
2022-12-29T22:12:53.173Z,93.84
2022-12-29T22:17:55.489Z,93.21
2022-12-29T22:22:57.691Z,93.57
2022-12-29T22:27:59.892Z,93.71
2022-12-29T22:33:02.171Z,93.24
2022-12-29T22:38:03.962Z,93.48
2022-12-29T22:43:12.742Z,93.34
2022-12-29T22:48:14.790Z,92.95
2022-12-29T22:53:16.498Z,93.40
2022-12-29T22:58:18.138Z,93.50
2022-12-29T23:03:19.910Z,93.42
2022-12-29T23:08:21.755Z,93.23
2022-12-29T23:13:23.456Z,93.84
2022-12-29T23:18:25.939Z,94.35
2022-12-29T23:23:49.238Z,93.01
2022-12-29T23:28:56.220Z,93.66
2022-12-29T23:34:02.823Z,94.23
2022-12-29T23:39:05.742Z,94.24
2022-12-29T23:44:07.526Z,93.75
2022-12-29T23:49:10.127Z,94.70
2022-12-29T23:54:11.741Z,93.79
2022-12-29T23:59:13.383Z,93.61
